sensor_id;sensor_type;location;lat;lon;timestamp;P1;durP1;ratioP1;P2;durP2;ratioP2
44246;SDS011;29922;0.000;0.000;2022-09-28T13:41:59;0.35;;;0.10;;
44246;SDS011;29922;0.000;0.000;2022-09-28T13:47:22;0.32;;;0.10;;
44246;SDS011;29922;0.000;0.000;2022-09-28T13:53:03;0.15;;;0.08;;
44246;SDS011;29922;0.000;0.000;2022-09-28T13:58:36;0.60;;;0.17;;
44246;SDS011;29922;0.000;0.000;2022-09-28T14:04:13;0.50;;;0.20;;
44246;SDS011;29922;0.000;0.000;2022-09-28T14:09:41;0.43;;;0.10;;
44246;SDS011;29922;0.000;0.000;2022-09-28T14:15:13;0.43;;;0.20;;
44246;SDS011;29922;0.000;0.000;2022-09-28T14:33:24;0.55;;;0.20;;
44246;SDS011;29922;0.000;0.000;2022-09-28T14:38:48;0.98;;;0.20;;
44246;SDS011;29922;0.000;0.000;2022-09-28T14:44:27;0.20;;;0.20;;
44246;SDS011;29922;0.000;0.000;2022-09-28T14:49:52;0.60;;;0.25;;
44246;SDS011;29922;0.000;0.000;2022-09-28T14:55:23;3.42;;;1.20;;
44246;SDS011;29922;0.000;0.000;2022-09-28T15:00:51;6.32;;;2.20;;
44246;SDS011;29922;0.000;0.000;2022-09-28T15:06:22;5.97;;;2.20;;
44246;SDS011;29922;0.000;0.000;2022-09-28T15:11:44;6.47;;;2.20;;
44246;SDS011;29922;0.000;0.000;2022-09-28T15:17:07;7.15;;;2.00;;
44246;SDS011;29922;0.000;0.000;2022-09-28T15:22:32;6.97;;;2.08;;
44246;SDS011;29922;0.000;0.000;2022-09-28T15:27:54;4.80;;;1.73;;
44246;SDS011;29922;0.000;0.000;2022-09-28T15:33:22;4.07;;;1.77;;
44246;SDS011;29922;0.000;0.000;2022-09-28T15:39:12;3.40;;;1.30;;
44246;SDS011;29922;0.000;0.000;2022-09-28T15:44:39;2.65;;;1.35;;
44246;SDS011;29922;0.000;0.000;2022-09-28T15:50:03;2.70;;;1.40;;
44246;SDS011;29922;0.000;0.000;2022-09-28T15:55:29;2.45;;;1.30;;
44246;SDS011;29922;0.000;0.000;2022-09-28T16:01:16;3.25;;;1.50;;
44246;SDS011;29922;0.000;0.000;2022-09-28T16:06:57;2.80;;;1.38;;
44246;SDS011;29922;0.000;0.000;2022-09-28T16:12:43;3.47;;;1.27;;
44246;SDS011;29922;0.000;0.000;2022-09-28T16:18:13;2.28;;;1.20;;
44246;SDS011;29922;0.000;0.000;2022-09-28T16:23:38;3.20;;;1.13;;
44246;SDS011;29922;0.000;0.000;2022-09-28T16:29:00;4.03;;;1.30;;
44246;SDS011;29922;0.000;0.000;2022-09-28T16:34:28;3.15;;;1.23;;
44246;SDS011;29922;0.000;0.000;2022-09-28T16:39:48;2.25;;;0.90;;
44246;SDS011;29922;0.000;0.000;2022-09-28T16:45:11;3.60;;;1.30;;
44246;SDS011;29922;0.000;0.000;2022-09-28T16:50:39;3.90;;;1.50;;
44246;SDS011;29922;0.000;0.000;2022-09-28T16:55:59;3.78;;;1.58;;
44246;SDS011;29922;0.000;0.000;2022-09-28T17:01:22;2.90;;;1.50;;
44246;SDS011;29922;0.000;0.000;2022-09-28T17:06:43;2.40;;;1.25;;
44246;SDS011;29922;0.000;0.000;2022-09-28T17:12:05;2.80;;;1.20;;
44246;SDS011;29922;0.000;0.000;2022-09-28T17:17:33;3.47;;;1.40;;
44246;SDS011;29922;0.000;0.000;2022-09-28T17:22:55;1.90;;;1.10;;
44246;SDS011;29922;0.000;0.000;2022-09-28T17:28:17;2.58;;;1.15;;
44246;SDS011;29922;0.000;0.000;2022-09-28T17:33:42;1.92;;;1.10;;
44246;SDS011;29922;0.000;0.000;2022-09-28T17:39:03;2.63;;;1.20;;
44246;SDS011;29922;0.000;0.000;2022-09-28T17:44:25;2.03;;;0.95;;
44246;SDS011;29922;0.000;0.000;2022-09-28T17:49:47;1.98;;;1.02;;
44246;SDS011;29922;0.000;0.000;2022-09-28T17:55:09;2.05;;;0.90;;
44246;SDS011;29922;0.000;0.000;2022-09-28T18:00:29;2.05;;;0.90;;
44246;SDS011;29922;0.000;0.000;2022-09-28T18:06:00;1.77;;;0.90;;
44246;SDS011;29922;0.000;0.000;2022-09-28T18:11:25;1.08;;;0.73;;
44246;SDS011;29922;0.000;0.000;2022-09-28T18:16:46;1.73;;;0.70;;
44246;SDS011;29922;0.000;0.000;2022-09-28T18:22:09;1.30;;;0.80;;
44246;SDS011;29922;0.000;0.000;2022-09-28T18:27:30;1.85;;;0.82;;
44246;SDS011;29922;0.000;0.000;2022-09-28T18:32:52;1.40;;;0.70;;
44246;SDS011;29922;0.000;0.000;2022-09-28T18:38:13;1.30;;;0.73;;
44246;SDS011;29922;0.000;0.000;2022-09-28T18:43:34;1.50;;;0.70;;
44246;SDS011;29922;0.000;0.000;2022-09-28T18:48:55;1.40;;;0.65;;
44246;SDS011;29922;0.000;0.000;2022-09-28T18:54:17;1.58;;;0.70;;
44246;SDS011;29922;0.000;0.000;2022-09-28T18:59:37;1.92;;;0.65;;
44246;SDS011;29922;0.000;0.000;2022-09-28T19:04:58;1.58;;;0.63;;
44246;SDS011;29922;0.000;0.000;2022-09-28T19:10:20;1.83;;;0.68;;
44246;SDS011;29922;0.000;0.000;2022-09-28T19:15:41;1.73;;;0.70;;
44246;SDS011;29922;0.000;0.000;2022-09-28T19:21:03;1.65;;;0.80;;
44246;SDS011;29922;0.000;0.000;2022-09-28T19:26:28;1.30;;;0.70;;
44246;SDS011;29922;0.000;0.000;2022-09-28T19:31:50;1.10;;;0.60;;
44246;SDS011;29922;0.000;0.000;2022-09-28T19:37:11;1.20;;;0.70;;
44246;SDS011;29922;0.000;0.000;2022-09-28T19:42:33;0.93;;;0.60;;
44246;SDS011;29922;0.000;0.000;2022-09-28T19:47:54;0.73;;;0.50;;
44246;SDS011;29922;0.000;0.000;2022-09-28T19:53:16;1.23;;;0.80;;
44246;SDS011;29922;0.000;0.000;2022-09-28T19:58:38;1.02;;;0.63;;
44246;SDS011;29922;0.000;0.000;2022-09-28T20:03:58;1.50;;;0.60;;
44246;SDS011;29922;0.000;0.000;2022-09-28T20:09:19;1.33;;;0.60;;
44246;SDS011;29922;0.000;0.000;2022-09-28T20:14:41;1.17;;;0.50;;
44246;SDS011;29922;0.000;0.000;2022-09-28T20:20:02;1.15;;;0.50;;
44246;SDS011;29922;0.000;0.000;2022-09-28T20:25:23;1.08;;;0.60;;
44246;SDS011;29922;0.000;0.000;2022-09-28T20:30:45;0.90;;;0.60;;
44246;SDS011;29922;0.000;0.000;2022-09-28T20:36:06;1.48;;;0.50;;
44246;SDS011;29922;0.000;0.000;2022-09-28T20:41:30;1.00;;;0.50;;
44246;SDS011;29922;0.000;0.000;2022-09-28T20:46:54;1.23;;;0.68;;
44246;SDS011;29922;0.000;0.000;2022-09-28T20:52:14;1.00;;;0.50;;
44246;SDS011;29922;0.000;0.000;2022-09-28T20:57:35;0.60;;;0.40;;
44246;SDS011;29922;0.000;0.000;2022-09-28T21:02:56;1.10;;;0.57;;
44246;SDS011;29922;0.000;0.000;2022-09-28T21:08:19;3.80;;;0.50;;
44246;SDS011;29922;0.000;0.000;2022-09-28T21:13:40;0.60;;;0.40;;
44246;SDS011;29922;0.000;0.000;2022-09-28T21:19:02;0.70;;;0.40;;
44246;SDS011;29922;0.000;0.000;2022-09-28T21:24:24;0.60;;;0.40;;
44246;SDS011;29922;0.000;0.000;2022-09-28T21:29:44;1.23;;;0.60;;
44246;SDS011;29922;0.000;0.000;2022-09-28T21:35:07;0.77;;;0.40;;
44246;SDS011;29922;0.000;0.000;2022-09-28T21:40:28;0.93;;;0.30;;
44246;SDS011;29922;0.000;0.000;2022-09-28T21:45:49;0.73;;;0.40;;
44246;SDS011;29922;0.000;0.000;2022-09-28T21:51:11;0.52;;;0.40;;
44246;SDS011;29922;0.000;0.000;2022-09-28T21:56:33;0.80;;;0.30;;
44246;SDS011;29922;0.000;0.000;2022-09-28T22:01:54;0.47;;;0.30;;
44246;SDS011;29922;0.000;0.000;2022-09-28T22:07:16;0.93;;;0.40;;
44246;SDS011;29922;0.000;0.000;2022-09-28T22:12:36;0.57;;;0.50;;
44246;SDS011;29922;0.000;0.000;2022-09-28T22:17:57;0.90;;;0.40;;
44246;SDS011;29922;0.000;0.000;2022-09-28T22:23:20;1.33;;;0.50;;
44246;SDS011;29922;0.000;0.000;2022-09-28T22:28:43;0.55;;;0.35;;
44246;SDS011;29922;0.000;0.000;2022-09-28T22:34:05;0.45;;;0.40;;
44246;SDS011;29922;0.000;0.000;2022-09-28T22:39:28;0.95;;;0.25;;
44246;SDS011;29922;0.000;0.000;2022-09-28T22:44:51;0.50;;;0.40;;
44246;SDS011;29922;0.000;0.000;2022-09-28T22:50:11;0.73;;;0.35;;
44246;SDS011;29922;0.000;0.000;2022-09-28T22:55:34;0.35;;;0.30;;
44246;SDS011;29922;0.000;0.000;2022-09-28T23:00:54;0.65;;;0.50;;
44246;SDS011;29922;0.000;0.000;2022-09-28T23:06:16;0.47;;;0.40;;
44246;SDS011;29922;0.000;0.000;2022-09-28T23:11:40;0.45;;;0.40;;
44246;SDS011;29922;0.000;0.000;2022-09-28T23:17:00;1.00;;;0.50;;
44246;SDS011;29922;0.000;0.000;2022-09-28T23:22:21;0.40;;;0.30;;
44246;SDS011;29922;0.000;0.000;2022-09-28T23:27:44;0.20;;;0.20;;
44246;SDS011;29922;0.000;0.000;2022-09-28T23:33:05;0.50;;;0.30;;
44246;SDS011;29922;0.000;0.000;2022-09-28T23:38:25;0.40;;;0.40;;
44246;SDS011;29922;0.000;0.000;2022-09-28T23:43:47;0.90;;;0.20;;
44246;SDS011;29922;0.000;0.000;2022-09-28T23:49:08;0.90;;;0.32;;
44246;SDS011;29922;0.000;0.000;2022-09-28T23:54:28;0.20;;;0.20;;
44246;SDS011;29922;0.000;0.000;2022-09-28T23:59:50;0.55;;;0.30;;
